sensor_id;sensor_type;location;lat;lon;timestamp;P1;durP1;ratioP1;P2;durP2;ratioP2
25213;SDS011;13160;51.834;4.706;2023-02-28T00:01:47;9.30;;;3.63;;
25213;SDS011;13160;51.834;4.706;2023-02-28T00:04:15;9.95;;;4.00;;
25213;SDS011;13160;51.834;4.706;2023-02-28T00:06:48;6.40;;;3.38;;
25213;SDS011;13160;51.834;4.706;2023-02-28T00:09:18;7.32;;;3.67;;
25213;SDS011;13160;51.834;4.706;2023-02-28T00:11:46;6.47;;;3.20;;
25213;SDS011;13160;51.834;4.706;2023-02-28T00:14:16;8.23;;;3.53;;
25213;SDS011;13160;51.834;4.706;2023-02-28T00:16:46;7.20;;;3.33;;
25213;SDS011;13160;51.834;4.706;2023-02-28T00:19:14;8.93;;;4.00;;
25213;SDS011;13160;51.834;4.706;2023-02-28T00:21:45;7.93;;;3.70;;
25213;SDS011;13160;51.834;4.706;2023-02-28T00:24:14;7.20;;;3.08;;
25213;SDS011;13160;51.834;4.706;2023-02-28T00:26:46;6.18;;;3.88;;
25213;SDS011;13160;51.834;4.706;2023-02-28T00:29:14;7.85;;;3.72;;
25213;SDS011;13160;51.834;4.706;2023-02-28T00:31:43;7.20;;;3.58;;
25213;SDS011;13160;51.834;4.706;2023-02-28T00:34:12;6.82;;;4.05;;
25213;SDS011;13160;51.834;4.706;2023-02-28T00:36:41;9.38;;;3.95;;
25213;SDS011;13160;51.834;4.706;2023-02-28T00:39:11;7.35;;;3.90;;
25213;SDS011;13160;51.834;4.706;2023-02-28T00:41:39;8.02;;;4.15;;
25213;SDS011;13160;51.834;4.706;2023-02-28T00:44:08;7.68;;;4.00;;
25213;SDS011;13160;51.834;4.706;2023-02-28T00:46:36;10.32;;;4.40;;
25213;SDS011;13160;51.834;4.706;2023-02-28T00:49:06;10.23;;;4.20;;
25213;SDS011;13160;51.834;4.706;2023-02-28T00:51:34;9.82;;;4.00;;
25213;SDS011;13160;51.834;4.706;2023-02-28T00:54:04;8.27;;;4.65;;
25213;SDS011;13160;51.834;4.706;2023-02-28T00:56:33;10.77;;;4.88;;
25213;SDS011;13160;51.834;4.706;2023-02-28T00:59:01;8.45;;;5.07;;
25213;SDS011;13160;51.834;4.706;2023-02-28T01:01:30;11.70;;;5.32;;
25213;SDS011;13160;51.834;4.706;2023-02-28T01:03:59;13.43;;;4.88;;
25213;SDS011;13160;51.834;4.706;2023-02-28T01:06:29;10.52;;;5.13;;
25213;SDS011;13160;51.834;4.706;2023-02-28T01:08:58;10.80;;;5.07;;
25213;SDS011;13160;51.834;4.706;2023-02-28T01:11:33;10.73;;;4.75;;
25213;SDS011;13160;51.834;4.706;2023-02-28T01:14:03;9.05;;;5.10;;
25213;SDS011;13160;51.834;4.706;2023-02-28T01:16:33;7.57;;;4.78;;
25213;SDS011;13160;51.834;4.706;2023-02-28T01:19:01;6.70;;;4.13;;
25213;SDS011;13160;51.834;4.706;2023-02-28T01:21:31;10.45;;;5.38;;
25213;SDS011;13160;51.834;4.706;2023-02-28T01:24:01;8.80;;;4.25;;
25213;SDS011;13160;51.834;4.706;2023-02-28T01:26:34;9.23;;;4.78;;
25213;SDS011;13160;51.834;4.706;2023-02-28T01:29:02;12.20;;;4.90;;
25213;SDS011;13160;51.834;4.706;2023-02-28T01:31:32;9.90;;;4.40;;
25213;SDS011;13160;51.834;4.706;2023-02-28T01:34:01;13.60;;;4.30;;
25213;SDS011;13160;51.834;4.706;2023-02-28T01:36:34;12.85;;;5.28;;
25213;SDS011;13160;51.834;4.706;2023-02-28T01:39:02;12.10;;;4.10;;
25213;SDS011;13160;51.834;4.706;2023-02-28T01:41:32;8.65;;;4.45;;
25213;SDS011;13160;51.834;4.706;2023-02-28T01:44:03;8.95;;;4.32;;
25213;SDS011;13160;51.834;4.706;2023-02-28T01:46:34;12.95;;;4.50;;
25213;SDS011;13160;51.834;4.706;2023-02-28T01:49:05;10.27;;;4.18;;
25213;SDS011;13160;51.834;4.706;2023-02-28T01:51:40;8.55;;;4.13;;
25213;SDS011;13160;51.834;4.706;2023-02-28T01:54:12;11.73;;;4.18;;
25213;SDS011;13160;51.834;4.706;2023-02-28T01:56:45;9.50;;;4.15;;
25213;SDS011;13160;51.834;4.706;2023-02-28T01:59:20;11.65;;;4.10;;
25213;SDS011;13160;51.834;4.706;2023-02-28T02:01:53;9.60;;;4.15;;
25213;SDS011;13160;51.834;4.706;2023-02-28T02:04:22;10.00;;;4.47;;
25213;SDS011;13160;51.834;4.706;2023-02-28T02:06:55;7.30;;;3.85;;
25213;SDS011;13160;51.834;4.706;2023-02-28T02:09:25;11.52;;;4.53;;
25213;SDS011;13160;51.834;4.706;2023-02-28T02:11:54;8.75;;;3.83;;
25213;SDS011;13160;51.834;4.706;2023-02-28T02:14:32;10.23;;;4.32;;
25213;SDS011;13160;51.834;4.706;2023-02-28T02:17:16;8.65;;;4.20;;
25213;SDS011;13160;51.834;4.706;2023-02-28T02:20:04;8.60;;;3.47;;
25213;SDS011;13160;51.834;4.706;2023-02-28T02:23:10;7.13;;;3.45;;
25213;SDS011;13160;51.834;4.706;2023-02-28T02:26:09;7.78;;;3.88;;
25213;SDS011;13160;51.834;4.706;2023-02-28T02:29:06;13.60;;;4.20;;
25213;SDS011;13160;51.834;4.706;2023-02-28T02:35:57;8.25;;;3.92;;
25213;SDS011;13160;51.834;4.706;2023-02-28T02:38:32;9.20;;;3.63;;
25213;SDS011;13160;51.834;4.706;2023-02-28T02:41:06;9.05;;;3.55;;
25213;SDS011;13160;51.834;4.706;2023-02-28T02:43:43;7.60;;;3.38;;
25213;SDS011;13160;51.834;4.706;2023-02-28T02:46:17;9.05;;;4.70;;
25213;SDS011;13160;51.834;4.706;2023-02-28T02:48:52;12.13;;;4.47;;
25213;SDS011;13160;51.834;4.706;2023-02-28T02:51:26;11.43;;;4.30;;
25213;SDS011;13160;51.834;4.706;2023-02-28T02:54:00;8.73;;;4.32;;
25213;SDS011;13160;51.834;4.706;2023-02-28T02:56:34;9.25;;;4.40;;
25213;SDS011;13160;51.834;4.706;2023-02-28T02:59:09;7.95;;;3.88;;
25213;SDS011;13160;51.834;4.706;2023-02-28T03:01:46;9.85;;;4.80;;
25213;SDS011;13160;51.834;4.706;2023-02-28T03:04:19;9.18;;;4.22;;
25213;SDS011;13160;51.834;4.706;2023-02-28T03:06:52;7.45;;;4.20;;
25213;SDS011;13160;51.834;4.706;2023-02-28T03:09:21;10.20;;;4.38;;
25213;SDS011;13160;51.834;4.706;2023-02-28T03:11:52;10.80;;;4.50;;
25213;SDS011;13160;51.834;4.706;2023-02-28T03:14:30;9.88;;;4.18;;
25213;SDS011;13160;51.834;4.706;2023-02-28T03:17:21;10.45;;;4.18;;
25213;SDS011;13160;51.834;4.706;2023-02-28T03:20:11;13.63;;;4.20;;
25213;SDS011;13160;51.834;4.706;2023-02-28T03:22:56;9.73;;;4.00;;
25213;SDS011;13160;51.834;4.706;2023-02-28T03:25:40;9.35;;;4.43;;
25213;SDS011;13160;51.834;4.706;2023-02-28T03:28:24;12.88;;;4.97;;
25213;SDS011;13160;51.834;4.706;2023-02-28T03:31:07;11.43;;;4.75;;
25213;SDS011;13160;51.834;4.706;2023-02-28T03:33:45;11.25;;;4.88;;
25213;SDS011;13160;51.834;4.706;2023-02-28T03:36:24;14.27;;;4.65;;
25213;SDS011;13160;51.834;4.706;2023-02-28T03:38:59;9.05;;;4.13;;
25213;SDS011;13160;51.834;4.706;2023-02-28T03:41:32;10.45;;;5.10;;
25213;SDS011;13160;51.834;4.706;2023-02-28T03:44:08;7.22;;;4.50;;
25213;SDS011;13160;51.834;4.706;2023-02-28T03:46:44;10.50;;;4.45;;
25213;SDS011;13160;51.834;4.706;2023-02-28T03:49:19;11.77;;;5.07;;
25213;SDS011;13160;51.834;4.706;2023-02-28T03:51:50;10.88;;;5.10;;
25213;SDS011;13160;51.834;4.706;2023-02-28T03:54:24;13.65;;;5.18;;
25213;SDS011;13160;51.834;4.706;2023-02-28T03:56:57;8.95;;;4.50;;
25213;SDS011;13160;51.834;4.706;2023-02-28T03:59:32;13.20;;;5.93;;
25213;SDS011;13160;51.834;4.706;2023-02-28T04:02:05;10.18;;;5.43;;
25213;SDS011;13160;51.834;4.706;2023-02-28T04:04:37;9.80;;;5.38;;
25213;SDS011;13160;51.834;4.706;2023-02-28T04:07:14;11.43;;;5.45;;
25213;SDS011;13160;51.834;4.706;2023-02-28T04:09:48;12.35;;;5.63;;
25213;SDS011;13160;51.834;4.706;2023-02-28T04:12:17;11.15;;;4.78;;
25213;SDS011;13160;51.834;4.706;2023-02-28T04:14:47;9.88;;;5.63;;
25213;SDS011;13160;51.834;4.706;2023-02-28T04:17:15;8.65;;;4.82;;
25213;SDS011;13160;51.834;4.706;2023-02-28T04:19:50;12.80;;;5.88;;
25213;SDS011;13160;51.834;4.706;2023-02-28T04:22:23;11.18;;;5.47;;
25213;SDS011;13160;51.834;4.706;2023-02-28T04:24:54;8.30;;;5.65;;
25213;SDS011;13160;51.834;4.706;2023-02-28T04:27:23;10.65;;;5.70;;
25213;SDS011;13160;51.834;4.706;2023-02-28T04:29:51;10.88;;;5.57;;
25213;SDS011;13160;51.834;4.706;2023-02-28T04:32:19;11.18;;;6.18;;
25213;SDS011;13160;51.834;4.706;2023-02-28T04:34:47;14.50;;;6.20;;
25213;SDS011;13160;51.834;4.706;2023-02-28T04:37:15;13.52;;;5.88;;
25213;SDS011;13160;51.834;4.706;2023-02-28T04:39:44;11.38;;;6.20;;
25213;SDS011;13160;51.834;4.706;2023-02-28T04:42:14;11.05;;;5.63;;
25213;SDS011;13160;51.834;4.706;2023-02-28T04:44:46;9.90;;;5.75;;
25213;SDS011;13160;51.834;4.706;2023-02-28T04:47:14;11.25;;;5.65;;
25213;SDS011;13160;51.834;4.706;2023-02-28T04:49:45;9.02;;;5.88;;
25213;SDS011;13160;51.834;4.706;2023-02-28T04:52:13;11.77;;;6.25;;
25213;SDS011;13160;51.834;4.706;2023-02-28T04:54:42;13.38;;;6.68;;
25213;SDS011;13160;51.834;4.706;2023-02-28T04:57:11;12.30;;;6.10;;
25213;SDS011;13160;51.834;4.706;2023-02-28T04:59:40;12.35;;;6.43;;
25213;SDS011;13160;51.834;4.706;2023-02-28T05:02:08;14.27;;;6.80;;
25213;SDS011;13160;51.834;4.706;2023-02-28T05:04:37;11.75;;;6.53;;
25213;SDS011;13160;51.834;4.706;2023-02-28T05:07:05;10.85;;;6.30;;
25213;SDS011;13160;51.834;4.706;2023-02-28T05:09:33;11.13;;;6.68;;
25213;SDS011;13160;51.834;4.706;2023-02-28T05:12:02;13.52;;;6.90;;
25213;SDS011;13160;51.834;4.706;2023-02-28T05:14:30;13.00;;;6.55;;
25213;SDS011;13160;51.834;4.706;2023-02-28T05:17:00;10.38;;;5.57;;
25213;SDS011;13160;51.834;4.706;2023-02-28T05:19:30;17.00;;;6.95;;
25213;SDS011;13160;51.834;4.706;2023-02-28T05:22:00;11.60;;;6.97;;
25213;SDS011;13160;51.834;4.706;2023-02-28T05:24:29;16.75;;;6.80;;
25213;SDS011;13160;51.834;4.706;2023-02-28T05:26:57;10.85;;;6.93;;
25213;SDS011;13160;51.834;4.706;2023-02-28T05:29:26;15.73;;;6.90;;
25213;SDS011;13160;51.834;4.706;2023-02-28T05:31:54;12.02;;;6.50;;
25213;SDS011;13160;51.834;4.706;2023-02-28T05:34:24;11.07;;;7.22;;
25213;SDS011;13160;51.834;4.706;2023-02-28T05:36:52;15.40;;;6.82;;
25213;SDS011;13160;51.834;4.706;2023-02-28T05:39:20;10.00;;;6.22;;
25213;SDS011;13160;51.834;4.706;2023-02-28T05:41:49;11.10;;;6.60;;
25213;SDS011;13160;51.834;4.706;2023-02-28T05:44:17;13.88;;;6.35;;
25213;SDS011;13160;51.834;4.706;2023-02-28T05:46:47;12.05;;;6.40;;
25213;SDS011;13160;51.834;4.706;2023-02-28T05:49:15;13.23;;;7.30;;
25213;SDS011;13160;51.834;4.706;2023-02-28T05:51:45;10.95;;;6.85;;
25213;SDS011;13160;51.834;4.706;2023-02-28T05:54:13;13.32;;;6.68;;
25213;SDS011;13160;51.834;4.706;2023-02-28T05:56:44;14.43;;;6.95;;
25213;SDS011;13160;51.834;4.706;2023-02-28T05:59:12;10.45;;;5.90;;
25213;SDS011;13160;51.834;4.706;2023-02-28T06:01:41;12.27;;;6.43;;
25213;SDS011;13160;51.834;4.706;2023-02-28T06:04:15;13.77;;;5.10;;
25213;SDS011;13160;51.834;4.706;2023-02-28T06:06:58;8.00;;;4.60;;
25213;SDS011;13160;51.834;4.706;2023-02-28T06:09:27;14.82;;;5.35;;
25213;SDS011;13160;51.834;4.706;2023-02-28T06:11:57;7.13;;;3.97;;
25213;SDS011;13160;51.834;4.706;2023-02-28T06:14:25;6.97;;;4.22;;
25213;SDS011;13160;51.834;4.706;2023-02-28T06:16:54;7.47;;;4.07;;
25213;SDS011;13160;51.834;4.706;2023-02-28T06:19:24;7.05;;;4.05;;
25213;SDS011;13160;51.834;4.706;2023-02-28T06:21:53;9.82;;;3.58;;
25213;SDS011;13160;51.834;4.706;2023-02-28T06:24:25;9.07;;;3.38;;
25213;SDS011;13160;51.834;4.706;2023-02-28T06:26:57;5.65;;;3.17;;
25213;SDS011;13160;51.834;4.706;2023-02-28T06:29:33;11.02;;;3.58;;
25213;SDS011;13160;51.834;4.706;2023-02-28T06:32:06;8.45;;;3.15;;
25213;SDS011;13160;51.834;4.706;2023-02-28T06:34:34;8.77;;;3.78;;
25213;SDS011;13160;51.834;4.706;2023-02-28T06:37:03;5.80;;;3.72;;
25213;SDS011;13160;51.834;4.706;2023-02-28T06:39:33;8.80;;;3.67;;
25213;SDS011;13160;51.834;4.706;2023-02-28T06:42:04;8.18;;;3.55;;
25213;SDS011;13160;51.834;4.706;2023-02-28T06:44:32;7.90;;;3.75;;
25213;SDS011;13160;51.834;4.706;2023-02-28T06:47:02;9.75;;;3.60;;
25213;SDS011;13160;51.834;4.706;2023-02-28T06:49:34;8.18;;;3.88;;
25213;SDS011;13160;51.834;4.706;2023-02-28T06:55:43;7.93;;;3.63;;
25213;SDS011;13160;51.834;4.706;2023-02-28T06:58:12;6.85;;;3.92;;
25213;SDS011;13160;51.834;4.706;2023-02-28T07:00:42;7.18;;;4.13;;
25213;SDS011;13160;51.834;4.706;2023-02-28T07:03:12;10.02;;;4.18;;
25213;SDS011;13160;51.834;4.706;2023-02-28T07:05:44;5.85;;;3.42;;
25213;SDS011;13160;51.834;4.706;2023-02-28T07:08:12;7.72;;;3.75;;
25213;SDS011;13160;51.834;4.706;2023-02-28T07:10:41;6.57;;;3.50;;
25213;SDS011;13160;51.834;4.706;2023-02-28T07:13:10;7.57;;;3.75;;
25213;SDS011;13160;51.834;4.706;2023-02-28T07:15:38;6.82;;;3.88;;
25213;SDS011;13160;51.834;4.706;2023-02-28T07:18:09;6.75;;;4.00;;
25213;SDS011;13160;51.834;4.706;2023-02-28T07:20:37;8.60;;;4.38;;
25213;SDS011;13160;51.834;4.706;2023-02-28T07:23:06;11.10;;;4.47;;
25213;SDS011;13160;51.834;4.706;2023-02-28T07:25:34;7.68;;;4.45;;
25213;SDS011;13160;51.834;4.706;2023-02-28T07:28:02;9.07;;;4.53;;
25213;SDS011;13160;51.834;4.706;2023-02-28T07:30:34;8.40;;;4.15;;
25213;SDS011;13160;51.834;4.706;2023-02-28T07:33:02;8.85;;;4.05;;
25213;SDS011;13160;51.834;4.706;2023-02-28T07:35:33;10.40;;;4.68;;
25213;SDS011;13160;51.834;4.706;2023-02-28T07:38:02;10.38;;;4.03;;
25213;SDS011;13160;51.834;4.706;2023-02-28T07:40:31;12.50;;;4.97;;
25213;SDS011;13160;51.834;4.706;2023-02-28T07:42:59;9.65;;;5.30;;
25213;SDS011;13160;51.834;4.706;2023-02-28T07:45:30;10.60;;;4.50;;
25213;SDS011;13160;51.834;4.706;2023-02-28T07:48:02;9.80;;;4.53;;
25213;SDS011;13160;51.834;4.706;2023-02-28T07:50:33;10.43;;;4.80;;
25213;SDS011;13160;51.834;4.706;2023-02-28T07:53:01;9.60;;;5.05;;
25213;SDS011;13160;51.834;4.706;2023-02-28T07:55:31;11.13;;;5.15;;
25213;SDS011;13160;51.834;4.706;2023-02-28T07:58:00;7.18;;;4.88;;
25213;SDS011;13160;51.834;4.706;2023-02-28T08:00:28;8.95;;;4.70;;
25213;SDS011;13160;51.834;4.706;2023-02-28T08:02:58;9.93;;;4.97;;
25213;SDS011;13160;51.834;4.706;2023-02-28T08:05:27;9.73;;;5.50;;
25213;SDS011;13160;51.834;4.706;2023-02-28T08:07:56;8.32;;;5.45;;
25213;SDS011;13160;51.834;4.706;2023-02-28T08:10:24;9.35;;;4.93;;
25213;SDS011;13160;51.834;4.706;2023-02-28T08:12:52;11.63;;;5.45;;
25213;SDS011;13160;51.834;4.706;2023-02-28T08:15:21;8.43;;;4.65;;
25213;SDS011;13160;51.834;4.706;2023-02-28T08:17:49;11.30;;;5.40;;
25213;SDS011;13160;51.834;4.706;2023-02-28T08:20:17;9.20;;;5.13;;
25213;SDS011;13160;51.834;4.706;2023-02-28T08:22:47;8.55;;;4.82;;
25213;SDS011;13160;51.834;4.706;2023-02-28T08:25:16;11.10;;;5.63;;
25213;SDS011;13160;51.834;4.706;2023-02-28T08:27:44;9.43;;;4.88;;
25213;SDS011;13160;51.834;4.706;2023-02-28T08:30:13;9.10;;;5.25;;
25213;SDS011;13160;51.834;4.706;2023-02-28T08:32:45;9.65;;;5.07;;
25213;SDS011;13160;51.834;4.706;2023-02-28T08:35:13;8.02;;;5.18;;
25213;SDS011;13160;51.834;4.706;2023-02-28T08:37:42;9.77;;;5.28;;
25213;SDS011;13160;51.834;4.706;2023-02-28T08:40:16;9.50;;;5.65;;
25213;SDS011;13160;51.834;4.706;2023-02-28T08:42:45;12.85;;;5.60;;
25213;SDS011;13160;51.834;4.706;2023-02-28T08:45:14;10.13;;;5.20;;
25213;SDS011;13160;51.834;4.706;2023-02-28T08:47:42;11.13;;;6.20;;
25213;SDS011;13160;51.834;4.706;2023-02-28T08:50:11;11.75;;;6.03;;
25213;SDS011;13160;51.834;4.706;2023-02-28T08:52:41;17.00;;;7.20;;
25213;SDS011;13160;51.834;4.706;2023-02-28T08:55:11;10.98;;;6.38;;
25213;SDS011;13160;51.834;4.706;2023-02-28T08:57:40;13.45;;;7.47;;
25213;SDS011;13160;51.834;4.706;2023-02-28T09:00:10;14.77;;;7.22;;
25213;SDS011;13160;51.834;4.706;2023-02-28T09:02:40;13.43;;;6.53;;
25213;SDS011;13160;51.834;4.706;2023-02-28T09:05:09;15.23;;;6.93;;
25213;SDS011;13160;51.834;4.706;2023-02-28T09:07:38;14.50;;;7.10;;
25213;SDS011;13160;51.834;4.706;2023-02-28T09:10:06;13.02;;;6.50;;
25213;SDS011;13160;51.834;4.706;2023-02-28T09:12:37;14.30;;;7.18;;
25213;SDS011;13160;51.834;4.706;2023-02-28T09:15:06;14.95;;;6.00;;
25213;SDS011;13160;51.834;4.706;2023-02-28T09:17:36;12.93;;;6.18;;
25213;SDS011;13160;51.834;4.706;2023-02-28T09:20:04;11.40;;;5.88;;
25213;SDS011;13160;51.834;4.706;2023-02-28T09:22:35;10.70;;;6.00;;
25213;SDS011;13160;51.834;4.706;2023-02-28T09:25:05;9.10;;;6.00;;
25213;SDS011;13160;51.834;4.706;2023-02-28T09:27:34;13.27;;;5.70;;
25213;SDS011;13160;51.834;4.706;2023-02-28T09:30:05;11.13;;;5.97;;
25213;SDS011;13160;51.834;4.706;2023-02-28T09:32:37;11.52;;;6.60;;
25213;SDS011;13160;51.834;4.706;2023-02-28T09:35:06;15.90;;;6.05;;
25213;SDS011;13160;51.834;4.706;2023-02-28T09:37:39;15.23;;;5.88;;
25213;SDS011;13160;51.834;4.706;2023-02-28T09:40:08;7.65;;;5.15;;
25213;SDS011;13160;51.834;4.706;2023-02-28T09:42:38;9.70;;;5.60;;
25213;SDS011;13160;51.834;4.706;2023-02-28T09:45:11;9.50;;;5.15;;
25213;SDS011;13160;51.834;4.706;2023-02-28T09:47:49;10.10;;;5.05;;
25213;SDS011;13160;51.834;4.706;2023-02-28T09:50:22;11.85;;;5.32;;
25213;SDS011;13160;51.834;4.706;2023-02-28T09:52:59;10.95;;;4.32;;
25213;SDS011;13160;51.834;4.706;2023-02-28T09:55:34;7.45;;;4.40;;
25213;SDS011;13160;51.834;4.706;2023-02-28T09:58:15;5.95;;;3.90;;
25213;SDS011;13160;51.834;4.706;2023-02-28T10:00:52;7.22;;;3.15;;
25213;SDS011;13160;51.834;4.706;2023-02-28T10:03:30;8.20;;;3.05;;
25213;SDS011;13160;51.834;4.706;2023-02-28T10:06:06;5.35;;;2.78;;
25213;SDS011;13160;51.834;4.706;2023-02-28T10:08:43;4.60;;;2.63;;
25213;SDS011;13160;51.834;4.706;2023-02-28T10:11:19;4.85;;;2.63;;
25213;SDS011;13160;51.834;4.706;2023-02-28T10:13:50;4.78;;;2.67;;
25213;SDS011;13160;51.834;4.706;2023-02-28T10:16:27;6.15;;;2.83;;
25213;SDS011;13160;51.834;4.706;2023-02-28T10:19:03;8.00;;;2.65;;
25213;SDS011;13160;51.834;4.706;2023-02-28T10:21:35;4.70;;;2.50;;
25213;SDS011;13160;51.834;4.706;2023-02-28T10:24:12;7.28;;;3.00;;
25213;SDS011;13160;51.834;4.706;2023-02-28T10:26:48;4.25;;;2.65;;
25213;SDS011;13160;51.834;4.706;2023-02-28T10:29:19;6.22;;;2.40;;
25213;SDS011;13160;51.834;4.706;2023-02-28T10:31:49;4.82;;;2.33;;
25213;SDS011;13160;51.834;4.706;2023-02-28T10:37:53;3.75;;;2.10;;
25213;SDS011;13160;51.834;4.706;2023-02-28T10:40:26;4.22;;;2.05;;
25213;SDS011;13160;51.834;4.706;2023-02-28T10:43:00;4.72;;;2.13;;
25213;SDS011;13160;51.834;4.706;2023-02-28T10:45:33;5.97;;;2.15;;
25213;SDS011;13160;51.834;4.706;2023-02-28T10:48:05;3.95;;;2.40;;
25213;SDS011;13160;51.834;4.706;2023-02-28T10:50:55;5.15;;;2.22;;
25213;SDS011;13160;51.834;4.706;2023-02-28T10:53:31;5.05;;;2.60;;
25213;SDS011;13160;51.834;4.706;2023-02-28T10:56:25;4.90;;;2.10;;
25213;SDS011;13160;51.834;4.706;2023-02-28T10:58:54;3.90;;;2.10;;
25213;SDS011;13160;51.834;4.706;2023-02-28T11:01:36;5.05;;;2.40;;
25213;SDS011;13160;51.834;4.706;2023-02-28T11:04:18;4.00;;;2.00;;
25213;SDS011;13160;51.834;4.706;2023-02-28T11:07:02;5.82;;;2.25;;
25213;SDS011;13160;51.834;4.706;2023-02-28T11:09:34;4.30;;;2.50;;
25213;SDS011;13160;51.834;4.706;2023-02-28T11:12:06;3.83;;;2.40;;
25213;SDS011;13160;51.834;4.706;2023-02-28T11:14:49;7.05;;;2.40;;
25213;SDS011;13160;51.834;4.706;2023-02-28T11:17:20;5.72;;;2.63;;
25213;SDS011;13160;51.834;4.706;2023-02-28T11:19:53;3.22;;;2.03;;
25213;SDS011;13160;51.834;4.706;2023-02-28T11:22:25;5.50;;;2.60;;
25213;SDS011;13160;51.834;4.706;2023-02-28T11:24:59;6.10;;;2.08;;
25213;SDS011;13160;51.834;4.706;2023-02-28T11:27:41;3.40;;;2.17;;
25213;SDS011;13160;51.834;4.706;2023-02-28T11:30:24;4.97;;;2.40;;
25213;SDS011;13160;51.834;4.706;2023-02-28T11:33:07;5.30;;;2.50;;
25213;SDS011;13160;51.834;4.706;2023-02-28T11:35:52;5.18;;;2.40;;
25213;SDS011;13160;51.834;4.706;2023-02-28T11:38:26;4.72;;;2.22;;
25213;SDS011;13160;51.834;4.706;2023-02-28T11:41:00;4.53;;;2.30;;
25213;SDS011;13160;51.834;4.706;2023-02-28T11:43:46;4.25;;;2.20;;
25213;SDS011;13160;51.834;4.706;2023-02-28T11:46:32;4.00;;;2.25;;
25213;SDS011;13160;51.834;4.706;2023-02-28T11:49:14;4.72;;;2.38;;
25213;SDS011;13160;51.834;4.706;2023-02-28T11:52:05;6.70;;;2.53;;
25213;SDS011;13160;51.834;4.706;2023-02-28T11:54:51;6.38;;;2.65;;
25213;SDS011;13160;51.834;4.706;2023-02-28T11:57:36;5.57;;;2.55;;
25213;SDS011;13160;51.834;4.706;2023-02-28T12:00:33;4.50;;;2.50;;
25213;SDS011;13160;51.834;4.706;2023-02-28T12:03:23;6.65;;;2.58;;
25213;SDS011;13160;51.834;4.706;2023-02-28T12:06:00;4.18;;;2.40;;
25213;SDS011;13160;51.834;4.706;2023-02-28T12:08:45;5.25;;;2.38;;
25213;SDS011;13160;51.834;4.706;2023-02-28T12:11:33;4.55;;;2.40;;
25213;SDS011;13160;51.834;4.706;2023-02-28T12:14:22;4.68;;;2.60;;
25213;SDS011;13160;51.834;4.706;2023-02-28T12:17:14;4.53;;;2.72;;
25213;SDS011;13160;51.834;4.706;2023-02-28T12:19:58;5.28;;;2.42;;
25213;SDS011;13160;51.834;4.706;2023-02-28T12:22:37;4.15;;;2.35;;
25213;SDS011;13160;51.834;4.706;2023-02-28T12:28:20;4.88;;;2.50;;
25213;SDS011;13160;51.834;4.706;2023-02-28T12:30:54;5.10;;;2.33;;
25213;SDS011;13160;51.834;4.706;2023-02-28T12:33:28;4.95;;;2.60;;
25213;SDS011;13160;51.834;4.706;2023-02-28T12:36:07;3.95;;;2.50;;
25213;SDS011;13160;51.834;4.706;2023-02-28T12:38:43;5.22;;;2.67;;
25213;SDS011;13160;51.834;4.706;2023-02-28T12:41:14;5.47;;;2.97;;
25213;SDS011;13160;51.834;4.706;2023-02-28T12:43:50;6.00;;;2.58;;
25213;SDS011;13160;51.834;4.706;2023-02-28T12:46:27;3.80;;;2.42;;
25213;SDS011;13160;51.834;4.706;2023-02-28T12:49:04;5.55;;;2.50;;
25213;SDS011;13160;51.834;4.706;2023-02-28T12:51:36;3.95;;;2.53;;
25213;SDS011;13160;51.834;4.706;2023-02-28T12:54:08;4.18;;;2.13;;
25213;SDS011;13160;51.834;4.706;2023-02-28T12:56:44;4.88;;;2.58;;
25213;SDS011;13160;51.834;4.706;2023-02-28T12:59:23;5.07;;;1.92;;
25213;SDS011;13160;51.834;4.706;2023-02-28T13:05:32;3.50;;;2.20;;
25213;SDS011;13160;51.834;4.706;2023-02-28T13:08:35;4.88;;;2.30;;
25213;SDS011;13160;51.834;4.706;2023-02-28T13:11:33;4.22;;;2.30;;
25213;SDS011;13160;51.834;4.706;2023-02-28T13:14:16;4.50;;;2.75;;
25213;SDS011;13160;51.834;4.706;2023-02-28T13:16:55;5.47;;;2.15;;
25213;SDS011;13160;51.834;4.706;2023-02-28T13:19:30;4.88;;;2.58;;
25213;SDS011;13160;51.834;4.706;2023-02-28T13:22:01;3.40;;;2.40;;
25213;SDS011;13160;51.834;4.706;2023-02-28T13:24:44;6.80;;;2.25;;
25213;SDS011;13160;51.834;4.706;2023-02-28T13:33:30;5.07;;;2.90;;
25213;SDS011;13160;51.834;4.706;2023-02-28T13:36:07;4.65;;;2.50;;
25213;SDS011;13160;51.834;4.706;2023-02-28T13:38:52;4.38;;;2.40;;
25213;SDS011;13160;51.834;4.706;2023-02-28T13:41:40;4.13;;;2.35;;
25213;SDS011;13160;51.834;4.706;2023-02-28T13:44:14;4.63;;;2.55;;
25213;SDS011;13160;51.834;4.706;2023-02-28T13:52:53;5.47;;;2.22;;
25213;SDS011;13160;51.834;4.706;2023-02-28T13:55:59;6.13;;;2.60;;
25213;SDS011;13160;51.834;4.706;2023-02-28T13:58:41;3.90;;;2.20;;
25213;SDS011;13160;51.834;4.706;2023-02-28T14:01:25;5.45;;;2.75;;
25213;SDS011;13160;51.834;4.706;2023-02-28T14:07:28;4.03;;;2.55;;
25213;SDS011;13160;51.834;4.706;2023-02-28T14:10:02;3.83;;;2.30;;
25213;SDS011;13160;51.834;4.706;2023-02-28T14:12:54;6.07;;;3.08;;
25213;SDS011;13160;51.834;4.706;2023-02-28T14:15:39;4.80;;;2.65;;
25213;SDS011;13160;51.834;4.706;2023-02-28T14:21:09;4.95;;;2.70;;
25213;SDS011;13160;51.834;4.706;2023-02-28T14:27:16;4.70;;;2.78;;
25213;SDS011;13160;51.834;4.706;2023-02-28T14:33:35;5.63;;;2.95;;
25213;SDS011;13160;51.834;4.706;2023-02-28T14:36:18;6.07;;;2.53;;
25213;SDS011;13160;51.834;4.706;2023-02-28T14:38:51;4.13;;;2.50;;
25213;SDS011;13160;51.834;4.706;2023-02-28T14:41:23;5.75;;;2.38;;
25213;SDS011;13160;51.834;4.706;2023-02-28T14:43:59;4.35;;;2.63;;
25213;SDS011;13160;51.834;4.706;2023-02-28T14:46:30;3.83;;;2.33;;
25213;SDS011;13160;51.834;4.706;2023-02-28T14:49:04;4.07;;;2.42;;
25213;SDS011;13160;51.834;4.706;2023-02-28T14:51:36;4.57;;;2.47;;
25213;SDS011;13160;51.834;4.706;2023-02-28T14:54:05;5.53;;;2.80;;
25213;SDS011;13160;51.834;4.706;2023-02-28T14:56:35;4.80;;;2.92;;
25213;SDS011;13160;51.834;4.706;2023-02-28T14:59:20;6.05;;;3.00;;
25213;SDS011;13160;51.834;4.706;2023-02-28T15:04:55;5.18;;;2.58;;
25213;SDS011;13160;51.834;4.706;2023-02-28T15:07:27;6.07;;;2.97;;
25213;SDS011;13160;51.834;4.706;2023-02-28T15:10:09;7.32;;;2.90;;
25213;SDS011;13160;51.834;4.706;2023-02-28T15:12:49;6.10;;;2.88;;
25213;SDS011;13160;51.834;4.706;2023-02-28T15:15:23;4.22;;;2.60;;
25213;SDS011;13160;51.834;4.706;2023-02-28T15:18:14;4.85;;;2.65;;
25213;SDS011;13160;51.834;4.706;2023-02-28T15:20:50;6.20;;;2.97;;
25213;SDS011;13160;51.834;4.706;2023-02-28T15:23:21;5.57;;;2.80;;
25213;SDS011;13160;51.834;4.706;2023-02-28T15:25:50;4.78;;;2.88;;
25213;SDS011;13160;51.834;4.706;2023-02-28T15:28:21;4.75;;;2.72;;
25213;SDS011;13160;51.834;4.706;2023-02-28T15:30:52;4.70;;;2.80;;
25213;SDS011;13160;51.834;4.706;2023-02-28T15:33:24;7.70;;;3.00;;
25213;SDS011;13160;51.834;4.706;2023-02-28T15:36:03;7.25;;;3.08;;
25213;SDS011;13160;51.834;4.706;2023-02-28T15:38:43;5.00;;;2.72;;
25213;SDS011;13160;51.834;4.706;2023-02-28T15:41:21;4.82;;;3.05;;
25213;SDS011;13160;51.834;4.706;2023-02-28T15:46:54;5.25;;;2.90;;
25213;SDS011;13160;51.834;4.706;2023-02-28T15:49:32;6.60;;;2.90;;
25213;SDS011;13160;51.834;4.706;2023-02-28T15:52:12;5.18;;;3.03;;
25213;SDS011;13160;51.834;4.706;2023-02-28T15:54:45;4.88;;;2.90;;
25213;SDS011;13160;51.834;4.706;2023-02-28T15:57:15;4.72;;;3.22;;
25213;SDS011;13160;51.834;4.706;2023-02-28T15:59:49;5.65;;;3.20;;
25213;SDS011;13160;51.834;4.706;2023-02-28T16:02:22;7.85;;;3.35;;
25213;SDS011;13160;51.834;4.706;2023-02-28T16:05:00;4.13;;;2.70;;
25213;SDS011;13160;51.834;4.706;2023-02-28T16:07:48;6.18;;;2.90;;
25213;SDS011;13160;51.834;4.706;2023-02-28T16:10:18;4.43;;;2.90;;
25213;SDS011;13160;51.834;4.706;2023-02-28T16:12:46;5.30;;;3.28;;